Details From YABA - Albany
To YPJT - Jandakot
Flight Number -
Tags generated
Created
Modified
Stats Distance 255 nm / 472 km
Max Altitude 18,000 ft / 5,486 m
Waypoints 4
Social Downloads 4
Likes 0
Share VATSIM

Download

Looking for another format? Having issues loading an existing format? Contact us
Advertisement - Login to hide

Notes

Basic altitude profile: - Ascent Rate: 700ft/min - Ascent Speed: 100kts - Cruise Altitude: 7000ft - Cruise Speed: 140kts - Descent Rate: 700ft/min - Descent Speed: 120kts

Route

YABA TAMOD L513 PIY YPJT

ID Type Via Altitude Latitude Longitude Leg Dist Tot Dist Heading (true) Name
O YABA APT - 0 ft / 0 m -34.94469˚ 117.81111˚ - 0 nm - Albany
TAMOD FIX - 7,000 ft / 2,134 m -33.26833˚ 118.47167˚ 105 nm 105 nm 18° / 18° -
PIY NDB L513 (AWY-HI) 18,000 ft / 5,486 m -32.53917˚ 117.07444˚ 82 nm 188 nm 301° / 302° PINGELLY NDB
O YPJT APT - 0 ft / 0 m -32.09888˚ 115.87956˚ 66 nm 255 nm 293° / 294° Jandakot

Altitude Profile

Advertisement - Login to hide

Weather


0- 5 10 15 20 25 30 35+ Temperature / ° C

Clouds and Precipitation
Forecast for 2017-12-15 00:00 UTC. Updated 2 hours ago

Ground ~20,000 ft ~40,000 ft Winds

YABA

Details ICAO YABA (ALH)
Name Albany
Region Australia
Timezone Australia/Perth (UTC+8.0)
Stats Elevation 233 ft / 71 m (AMSL)
Location -34.944694° 117.811105°
Runways 2
Magnetic Variation 1.973° W

METAR

YABA 142300Z AUTO 30007KT 9999 // OVC030 17/12 Q1014

Decode

TAF

Not found

Departure Runways

ID Width Length Bearing (true) Bearing (mag) Surface Threshold Offset Overrun Length
05 98 ft / 30 m 3,589 ft / 1,094 m 44.90° 46.87° Unknown 0 ft / 0 m 0 ft / 0 m
14 98 ft / 30 m 5,896 ft / 1,797 m 134.90° 136.87° Asphalt 0 ft / 0 m 0 ft / 0 m
23 98 ft / 30 m 3,589 ft / 1,094 m 224.90° 226.87° Unknown 0 ft / 0 m 0 ft / 0 m
32 98 ft / 30 m 5,896 ft / 1,797 m 314.90° 316.87° Asphalt 0 ft / 0 m 0 ft / 0 m

YPJT

Details ICAO YPJT (JAD)
Name Jandakot
Region Australia
Timezone Australia/Perth (UTC+8.0)
Stats Elevation 99 ft / 30 m (AMSL)
Location -32.098877° 115.879564°
Runways 3
Magnetic Variation 1.771° W

METAR

YPJT 142230Z AUTO 17004KT 9999 // NCD 17/12 Q1013 RF00.0/000.0

Decode

TAF

TAF YPJT 141638Z 1418/1512 16010KT CAVOK FM142300 10010KT CAVOK FM150300 21014KT CAVOK FM150600 22017KT CAVOK FM151100 20014KT CAVOK

Decode

Destination Runways

ID Width Length Bearing (true) Bearing (mag) Surface Threshold Offset Overrun Length
06L 98 ft / 30 m 4,566 ft / 1,392 m 54.30° 56.07° Asphalt 387 ft / 118 m 0 ft / 0 m
06R 62 ft / 19 m 3,767 ft / 1,148 m 54.37° 56.14° Asphalt 0 ft / 0 m 0 ft / 0 m
12 98 ft / 30 m 3,242 ft / 988 m 114.50° 116.27° Asphalt 0 ft / 0 m 0 ft / 0 m
24L 62 ft / 19 m 3,767 ft / 1,148 m 234.37° 236.14° Asphalt 0 ft / 0 m 0 ft / 0 m
24R 98 ft / 30 m 4,566 ft / 1,392 m 234.30° 236.07° Asphalt 482 ft / 147 m 0 ft / 0 m
30 98 ft / 30 m 3,242 ft / 988 m 294.50° 296.27° Asphalt 0 ft / 0 m 0 ft / 0 m

Popular Alternatives